sensor_id;sensor_type;location;lat;lon;timestamp;P1;durP1;ratioP1;P2;durP2;ratioP2
13255;SDS011;37913;48.370;10.930;2022-08-06T00:02:25;100.43;;;48.22;;
13255;SDS011;37913;48.370;10.930;2022-08-06T00:04:53;120.00;;;49.92;;
13255;SDS011;37913;48.370;10.930;2022-08-06T00:07:22;92.10;;;47.45;;
13255;SDS011;37913;48.370;10.930;2022-08-06T00:09:49;101.72;;;47.83;;
13255;SDS011;37913;48.370;10.930;2022-08-06T00:12:16;93.13;;;46.70;;
13255;SDS011;37913;48.370;10.930;2022-08-06T00:14:43;96.45;;;47.47;;
13255;SDS011;37913;48.370;10.930;2022-08-06T00:17:10;102.88;;;48.38;;
13255;SDS011;37913;48.370;10.930;2022-08-06T00:19:37;108.68;;;50.30;;
13255;SDS011;37913;48.370;10.930;2022-08-06T00:22:03;125.28;;;53.88;;
13255;SDS011;37913;48.370;10.930;2022-08-06T00:24:32;134.73;;;54.28;;
13255;SDS011;37913;48.370;10.930;2022-08-06T00:26:59;133.15;;;55.60;;
13255;SDS011;37913;48.370;10.930;2022-08-06T00:29:26;149.90;;;57.40;;
13255;SDS011;37913;48.370;10.930;2022-08-06T00:31:52;150.15;;;57.10;;
13255;SDS011;37913;48.370;10.930;2022-08-06T00:34:19;137.00;;;55.17;;
13255;SDS011;37913;48.370;10.930;2022-08-06T00:36:46;136.85;;;57.22;;
13255;SDS011;37913;48.370;10.930;2022-08-06T00:39:13;186.20;;;59.53;;
13255;SDS011;37913;48.370;10.930;2022-08-06T00:41:42;164.85;;;58.50;;
13255;SDS011;37913;48.370;10.930;2022-08-06T00:44:09;150.50;;;58.92;;
13255;SDS011;37913;48.370;10.930;2022-08-06T00:46:36;140.77;;;58.10;;
13255;SDS011;37913;48.370;10.930;2022-08-06T00:49:03;161.77;;;57.85;;
13255;SDS011;37913;48.370;10.930;2022-08-06T00:51:30;149.38;;;58.40;;
13255;SDS011;37913;48.370;10.930;2022-08-06T00:53:59;151.80;;;58.90;;
13255;SDS011;37913;48.370;10.930;2022-08-06T00:56:27;153.93;;;58.30;;
13255;SDS011;37913;48.370;10.930;2022-08-06T00:58:55;169.95;;;59.40;;
13255;SDS011;37913;48.370;10.930;2022-08-06T01:01:22;190.15;;;60.90;;
13255;SDS011;37913;48.370;10.930;2022-08-06T01:03:49;162.05;;;59.80;;
13255;SDS011;37913;48.370;10.930;2022-08-06T01:06:16;160.52;;;57.22;;
13255;SDS011;37913;48.370;10.930;2022-08-06T01:08:43;158.57;;;59.28;;
13255;SDS011;37913;48.370;10.930;2022-08-06T01:11:10;150.23;;;57.80;;
13255;SDS011;37913;48.370;10.930;2022-08-06T01:13:37;139.13;;;56.25;;
13255;SDS011;37913;48.370;10.930;2022-08-06T01:16:09;143.65;;;56.65;;
13255;SDS011;37913;48.370;10.930;2022-08-06T01:18:45;148.20;;;57.30;;
13255;SDS011;37913;48.370;10.930;2022-08-06T01:21:21;166.05;;;57.90;;
13255;SDS011;37913;48.370;10.930;2022-08-06T01:24:02;129.65;;;55.38;;
13255;SDS011;37913;48.370;10.930;2022-08-06T01:26:43;156.50;;;56.92;;
13255;SDS011;37913;48.370;10.930;2022-08-06T01:29:19;158.63;;;57.97;;
13255;SDS011;37913;48.370;10.930;2022-08-06T01:31:50;145.10;;;55.45;;
13255;SDS011;37913;48.370;10.930;2022-08-06T01:34:23;137.77;;;56.80;;
13255;SDS011;37913;48.370;10.930;2022-08-06T01:36:55;140.68;;;55.30;;
13255;SDS011;37913;48.370;10.930;2022-08-06T01:39:29;134.98;;;55.15;;
13255;SDS011;37913;48.370;10.930;2022-08-06T01:41:58;130.77;;;52.50;;
13255;SDS011;37913;48.370;10.930;2022-08-06T01:44:31;138.98;;;53.72;;
13255;SDS011;37913;48.370;10.930;2022-08-06T01:47:03;130.07;;;51.75;;
13255;SDS011;37913;48.370;10.930;2022-08-06T01:49:34;159.68;;;55.35;;
13255;SDS011;37913;48.370;10.930;2022-08-06T01:52:03;137.15;;;52.92;;
13255;SDS011;37913;48.370;10.930;2022-08-06T01:54:34;123.35;;;51.38;;
13255;SDS011;37913;48.370;10.930;2022-08-06T01:57:05;117.03;;;51.30;;
13255;SDS011;37913;48.370;10.930;2022-08-06T01:59:36;135.43;;;52.53;;
13255;SDS011;37913;48.370;10.930;2022-08-06T02:02:08;130.75;;;53.13;;
13255;SDS011;37913;48.370;10.930;2022-08-06T02:04:42;139.00;;;54.80;;
13255;SDS011;37913;48.370;10.930;2022-08-06T02:07:12;135.90;;;54.00;;
13255;SDS011;37913;48.370;10.930;2022-08-06T02:09:41;137.70;;;54.40;;
13255;SDS011;37913;48.370;10.930;2022-08-06T02:12:11;141.38;;;53.67;;
13255;SDS011;37913;48.370;10.930;2022-08-06T02:14:46;138.45;;;54.30;;
13255;SDS011;37913;48.370;10.930;2022-08-06T02:17:18;124.78;;;52.53;;
13255;SDS011;37913;48.370;10.930;2022-08-06T02:19:49;141.38;;;53.92;;
13255;SDS011;37913;48.370;10.930;2022-08-06T02:22:18;136.60;;;53.50;;
13255;SDS011;37913;48.370;10.930;2022-08-06T02:24:47;147.07;;;55.75;;
13255;SDS011;37913;48.370;10.930;2022-08-06T02:27:14;125.68;;;51.53;;
13255;SDS011;37913;48.370;10.930;2022-08-06T02:29:45;130.10;;;52.20;;
13255;SDS011;37913;48.370;10.930;2022-08-06T02:32:14;123.00;;;52.22;;
13255;SDS011;37913;48.370;10.930;2022-08-06T02:34:42;136.07;;;52.88;;
13255;SDS011;37913;48.370;10.930;2022-08-06T02:37:10;118.25;;;50.85;;
13255;SDS011;37913;48.370;10.930;2022-08-06T02:39:41;120.68;;;50.90;;
13255;SDS011;37913;48.370;10.930;2022-08-06T02:42:15;111.32;;;47.97;;
13255;SDS011;37913;48.370;10.930;2022-08-06T02:44:48;111.40;;;48.58;;
13255;SDS011;37913;48.370;10.930;2022-08-06T02:47:21;108.88;;;47.70;;
13255;SDS011;37913;48.370;10.930;2022-08-06T02:49:56;108.50;;;46.90;;
13255;SDS011;37913;48.370;10.930;2022-08-06T02:52:28;105.45;;;46.05;;
13255;SDS011;37913;48.370;10.930;2022-08-06T02:55:02;113.10;;;47.70;;
13255;SDS011;37913;48.370;10.930;2022-08-06T02:57:36;115.55;;;46.70;;
13255;SDS011;37913;48.370;10.930;2022-08-06T03:00:08;107.82;;;46.47;;
13255;SDS011;37913;48.370;10.930;2022-08-06T03:02:36;111.10;;;47.00;;
13255;SDS011;37913;48.370;10.930;2022-08-06T03:05:06;98.35;;;45.63;;
13255;SDS011;37913;48.370;10.930;2022-08-06T03:07:37;101.68;;;45.58;;
13255;SDS011;37913;48.370;10.930;2022-08-06T03:10:06;103.93;;;45.05;;
13255;SDS011;37913;48.370;10.930;2022-08-06T03:12:35;102.68;;;45.83;;
13255;SDS011;37913;48.370;10.930;2022-08-06T03:15:04;97.85;;;44.63;;
13255;SDS011;37913;48.370;10.930;2022-08-06T03:17:35;103.22;;;46.70;;
13255;SDS011;37913;48.370;10.930;2022-08-06T03:20:04;98.00;;;45.00;;
13255;SDS011;37913;48.370;10.930;2022-08-06T03:22:33;105.80;;;47.15;;
13255;SDS011;37913;48.370;10.930;2022-08-06T03:25:02;110.50;;;47.17;;
13255;SDS011;37913;48.370;10.930;2022-08-06T03:27:30;114.35;;;47.38;;
13255;SDS011;37913;48.370;10.930;2022-08-06T03:29:58;121.88;;;48.85;;
13255;SDS011;37913;48.370;10.930;2022-08-06T03:32:27;99.88;;;45.45;;
13255;SDS011;37913;48.370;10.930;2022-08-06T03:34:54;117.32;;;49.00;;
13255;SDS011;37913;48.370;10.930;2022-08-06T03:37:24;110.72;;;48.08;;
13255;SDS011;37913;48.370;10.930;2022-08-06T03:39:53;106.55;;;47.08;;
13255;SDS011;37913;48.370;10.930;2022-08-06T03:42:20;106.65;;;46.65;;
13255;SDS011;37913;48.370;10.930;2022-08-06T03:44:49;115.05;;;48.13;;
13255;SDS011;37913;48.370;10.930;2022-08-06T03:47:18;114.15;;;47.50;;
13255;SDS011;37913;48.370;10.930;2022-08-06T03:49:52;100.95;;;45.90;;
13255;SDS011;37913;48.370;10.930;2022-08-06T03:52:25;109.57;;;47.63;;
13255;SDS011;37913;48.370;10.930;2022-08-06T03:54:54;117.65;;;47.60;;
13255;SDS011;37913;48.370;10.930;2022-08-06T03:57:25;102.00;;;46.22;;
13255;SDS011;37913;48.370;10.930;2022-08-06T03:59:57;112.20;;;48.75;;
13255;SDS011;37913;48.370;10.930;2022-08-06T04:02:30;113.25;;;47.80;;
13255;SDS011;37913;48.370;10.930;2022-08-06T04:05:00;113.07;;;48.03;;
13255;SDS011;37913;48.370;10.930;2022-08-06T04:07:29;113.35;;;48.55;;
13255;SDS011;37913;48.370;10.930;2022-08-06T04:09:56;100.60;;;46.35;;
13255;SDS011;37913;48.370;10.930;2022-08-06T04:12:26;102.22;;;46.65;;
13255;SDS011;37913;48.370;10.930;2022-08-06T04:14:54;114.05;;;49.10;;
13255;SDS011;37913;48.370;10.930;2022-08-06T04:17:22;99.38;;;46.67;;
13255;SDS011;37913;48.370;10.930;2022-08-06T04:19:50;103.05;;;46.75;;
13255;SDS011;37913;48.370;10.930;2022-08-06T04:22:19;103.25;;;47.05;;
13255;SDS011;37913;48.370;10.930;2022-08-06T04:24:46;119.32;;;49.25;;
13255;SDS011;37913;48.370;10.930;2022-08-06T04:27:14;104.35;;;47.25;;
13255;SDS011;37913;48.370;10.930;2022-08-06T04:29:41;107.45;;;47.90;;
13255;SDS011;37913;48.370;10.930;2022-08-06T04:32:11;102.88;;;46.88;;
13255;SDS011;37913;48.370;10.930;2022-08-06T04:34:41;104.30;;;47.10;;
13255;SDS011;37913;48.370;10.930;2022-08-06T04:37:09;97.45;;;46.25;;
13255;SDS011;37913;48.370;10.930;2022-08-06T04:39:39;105.80;;;47.47;;
13255;SDS011;37913;48.370;10.930;2022-08-06T04:42:06;102.38;;;47.08;;
13255;SDS011;37913;48.370;10.930;2022-08-06T04:44:34;100.88;;;46.60;;
13255;SDS011;37913;48.370;10.930;2022-08-06T04:47:02;106.22;;;46.97;;
13255;SDS011;37913;48.370;10.930;2022-08-06T04:49:30;101.65;;;46.42;;
13255;SDS011;37913;48.370;10.930;2022-08-06T04:52:02;100.80;;;46.58;;
13255;SDS011;37913;48.370;10.930;2022-08-06T04:54:29;101.65;;;46.28;;
13255;SDS011;37913;48.370;10.930;2022-08-06T04:56:58;114.80;;;49.40;;
13255;SDS011;37913;48.370;10.930;2022-08-06T04:59:24;98.68;;;46.50;;
13255;SDS011;37913;48.370;10.930;2022-08-06T05:01:51;94.10;;;45.13;;
13255;SDS011;37913;48.370;10.930;2022-08-06T05:04:18;99.30;;;45.65;;
13255;SDS011;37913;48.370;10.930;2022-08-06T05:06:46;103.53;;;46.45;;
13255;SDS011;37913;48.370;10.930;2022-08-06T05:09:19;98.70;;;45.13;;
13255;SDS011;37913;48.370;10.930;2022-08-06T05:11:51;97.90;;;45.90;;
13255;SDS011;37913;48.370;10.930;2022-08-06T05:14:24;91.03;;;44.25;;
13255;SDS011;37913;48.370;10.930;2022-08-06T05:16:55;102.35;;;46.13;;
13255;SDS011;37913;48.370;10.930;2022-08-06T05:19:26;99.00;;;45.67;;
13255;SDS011;37913;48.370;10.930;2022-08-06T05:22:10;103.68;;;45.53;;
13255;SDS011;37913;48.370;10.930;2022-08-06T05:24:41;101.82;;;45.90;;
13255;SDS011;37913;48.370;10.930;2022-08-06T05:27:09;91.20;;;43.33;;
13255;SDS011;37913;48.370;10.930;2022-08-06T05:29:37;95.38;;;44.35;;
13255;SDS011;37913;48.370;10.930;2022-08-06T05:32:06;88.80;;;42.75;;
13255;SDS011;37913;48.370;10.930;2022-08-06T05:34:34;93.80;;;43.33;;
13255;SDS011;37913;48.370;10.930;2022-08-06T05:37:01;96.18;;;44.47;;
13255;SDS011;37913;48.370;10.930;2022-08-06T05:39:29;89.93;;;43.35;;
13255;SDS011;37913;48.370;10.930;2022-08-06T05:41:55;106.03;;;44.72;;
13255;SDS011;37913;48.370;10.930;2022-08-06T05:44:22;92.82;;;43.97;;
13255;SDS011;37913;48.370;10.930;2022-08-06T05:46:51;98.80;;;45.33;;
13255;SDS011;37913;48.370;10.930;2022-08-06T05:49:21;94.28;;;45.38;;
13255;SDS011;37913;48.370;10.930;2022-08-06T05:51:53;99.47;;;45.17;;
13255;SDS011;37913;48.370;10.930;2022-08-06T05:54:27;94.43;;;45.20;;
13255;SDS011;37913;48.370;10.930;2022-08-06T05:57:02;90.57;;;43.97;;
13255;SDS011;37913;48.370;10.930;2022-08-06T05:59:33;99.22;;;44.45;;
13255;SDS011;37913;48.370;10.930;2022-08-06T06:02:05;94.50;;;44.95;;
13255;SDS011;37913;48.370;10.930;2022-08-06T06:04:34;95.03;;;44.65;;
13255;SDS011;37913;48.370;10.930;2022-08-06T06:07:01;91.20;;;44.33;;
13255;SDS011;37913;48.370;10.930;2022-08-06T06:09:29;96.35;;;45.25;;
13255;SDS011;37913;48.370;10.930;2022-08-06T06:11:57;98.78;;;46.05;;
13255;SDS011;37913;48.370;10.930;2022-08-06T06:14:29;98.53;;;46.30;;
13255;SDS011;37913;48.370;10.930;2022-08-06T06:17:03;89.57;;;44.53;;
13255;SDS011;37913;48.370;10.930;2022-08-06T06:19:42;96.82;;;45.28;;
13255;SDS011;37913;48.370;10.930;2022-08-06T06:22:17;98.25;;;46.22;;
13255;SDS011;37913;48.370;10.930;2022-08-06T06:24:48;105.95;;;45.90;;
13255;SDS011;37913;48.370;10.930;2022-08-06T06:27:22;97.13;;;45.45;;
13255;SDS011;37913;48.370;10.930;2022-08-06T06:30:05;94.00;;;45.50;;
13255;SDS011;37913;48.370;10.930;2022-08-06T06:32:42;97.85;;;45.38;;
13255;SDS011;37913;48.370;10.930;2022-08-06T06:35:19;103.28;;;46.38;;
13255;SDS011;37913;48.370;10.930;2022-08-06T06:37:55;105.70;;;46.67;;
13255;SDS011;37913;48.370;10.930;2022-08-06T06:40:33;98.18;;;45.97;;
13255;SDS011;37913;48.370;10.930;2022-08-06T06:43:09;95.55;;;45.33;;
13255;SDS011;37913;48.370;10.930;2022-08-06T06:45:44;94.28;;;44.90;;
13255;SDS011;37913;48.370;10.930;2022-08-06T06:48:23;88.35;;;43.95;;
13255;SDS011;37913;48.370;10.930;2022-08-06T06:51:02;100.85;;;46.58;;
13255;SDS011;37913;48.370;10.930;2022-08-06T06:53:34;102.78;;;47.33;;
13255;SDS011;37913;48.370;10.930;2022-08-06T06:56:03;96.28;;;46.10;;
13255;SDS011;37913;48.370;10.930;2022-08-06T06:58:33;101.88;;;47.75;;
13255;SDS011;37913;48.370;10.930;2022-08-06T07:01:03;103.35;;;46.92;;
13255;SDS011;37913;48.370;10.930;2022-08-06T07:03:33;102.80;;;47.72;;
13255;SDS011;37913;48.370;10.930;2022-08-06T07:06:02;89.53;;;45.08;;
13255;SDS011;37913;48.370;10.930;2022-08-06T07:08:33;103.07;;;47.92;;
13255;SDS011;37913;48.370;10.930;2022-08-06T07:11:06;114.53;;;50.13;;
13255;SDS011;37913;48.370;10.930;2022-08-06T07:13:35;117.35;;;50.10;;
13255;SDS011;37913;48.370;10.930;2022-08-06T07:16:03;111.80;;;50.42;;
13255;SDS011;37913;48.370;10.930;2022-08-06T07:18:31;108.03;;;50.22;;
13255;SDS011;37913;48.370;10.930;2022-08-06T07:21:01;105.03;;;49.05;;
13255;SDS011;37913;48.370;10.930;2022-08-06T07:23:29;94.80;;;47.50;;
13255;SDS011;37913;48.370;10.930;2022-08-06T07:25:57;111.00;;;50.85;;
13255;SDS011;37913;48.370;10.930;2022-08-06T07:28:25;93.65;;;46.53;;
13255;SDS011;37913;48.370;10.930;2022-08-06T07:30:53;104.32;;;49.08;;
13255;SDS011;37913;48.370;10.930;2022-08-06T07:33:22;104.30;;;48.78;;
13255;SDS011;37913;48.370;10.930;2022-08-06T07:35:50;90.43;;;45.10;;
13255;SDS011;37913;48.370;10.930;2022-08-06T07:38:19;96.80;;;47.50;;
13255;SDS011;37913;48.370;10.930;2022-08-06T07:40:50;97.97;;;47.78;;
13255;SDS011;37913;48.370;10.930;2022-08-06T07:43:20;90.40;;;47.08;;
13255;SDS011;37913;48.370;10.930;2022-08-06T07:45:49;102.35;;;48.67;;
13255;SDS011;37913;48.370;10.930;2022-08-06T07:48:18;107.38;;;49.40;;
13255;SDS011;37913;48.370;10.930;2022-08-06T07:50:48;101.43;;;48.65;;
13255;SDS011;37913;48.370;10.930;2022-08-06T07:53:18;105.78;;;49.30;;
13255;SDS011;37913;48.370;10.930;2022-08-06T07:55:46;107.93;;;49.53;;
13255;SDS011;37913;48.370;10.930;2022-08-06T07:58:13;112.97;;;51.10;;
13255;SDS011;37913;48.370;10.930;2022-08-06T08:00:41;106.32;;;50.85;;
13255;SDS011;37913;48.370;10.930;2022-08-06T08:03:09;98.72;;;48.97;;
13255;SDS011;37913;48.370;10.930;2022-08-06T08:05:55;104.30;;;49.63;;
13255;SDS011;37913;48.370;10.930;2022-08-06T08:08:41;107.40;;;50.40;;
13255;SDS011;37913;48.370;10.930;2022-08-06T08:11:08;105.28;;;49.85;;
13255;SDS011;37913;48.370;10.930;2022-08-06T08:13:36;99.07;;;48.40;;
13255;SDS011;37913;48.370;10.930;2022-08-06T08:16:03;102.68;;;49.40;;
13255;SDS011;37913;48.370;10.930;2022-08-06T08:18:32;107.32;;;49.90;;
13255;SDS011;37913;48.370;10.930;2022-08-06T08:21:01;113.38;;;52.22;;
13255;SDS011;37913;48.370;10.930;2022-08-06T08:23:29;101.82;;;50.47;;
13255;SDS011;37913;48.370;10.930;2022-08-06T08:25:57;104.25;;;50.70;;
13255;SDS011;37913;48.370;10.930;2022-08-06T08:28:26;90.45;;;47.65;;
13255;SDS011;37913;48.370;10.930;2022-08-06T08:30:54;102.50;;;48.95;;
13255;SDS011;37913;48.370;10.930;2022-08-06T08:33:23;104.60;;;49.90;;
13255;SDS011;37913;48.370;10.930;2022-08-06T08:35:51;105.38;;;50.22;;
13255;SDS011;37913;48.370;10.930;2022-08-06T08:38:19;101.75;;;49.05;;
13255;SDS011;37913;48.370;10.930;2022-08-06T08:40:46;104.68;;;49.92;;
13255;SDS011;37913;48.370;10.930;2022-08-06T08:43:16;104.43;;;50.85;;
13255;SDS011;37913;48.370;10.930;2022-08-06T08:45:49;101.68;;;49.38;;
13255;SDS011;37913;48.370;10.930;2022-08-06T08:48:19;114.93;;;52.50;;
13255;SDS011;37913;48.370;10.930;2022-08-06T08:50:49;106.85;;;50.45;;
13255;SDS011;37913;48.370;10.930;2022-08-06T08:53:20;111.93;;;52.70;;
13255;SDS011;37913;48.370;10.930;2022-08-06T08:55:51;103.60;;;50.17;;
13255;SDS011;37913;48.370;10.930;2022-08-06T08:58:19;99.50;;;48.95;;
13255;SDS011;37913;48.370;10.930;2022-08-06T09:00:47;121.70;;;54.30;;
13255;SDS011;37913;48.370;10.930;2022-08-06T09:03:14;106.97;;;52.60;;
13255;SDS011;37913;48.370;10.930;2022-08-06T09:05:42;104.70;;;51.65;;
13255;SDS011;37913;48.370;10.930;2022-08-06T09:08:10;106.55;;;51.90;;
13255;SDS011;37913;48.370;10.930;2022-08-06T09:10:39;104.45;;;52.72;;
13255;SDS011;37913;48.370;10.930;2022-08-06T09:13:07;105.10;;;52.63;;
13255;SDS011;37913;48.370;10.930;2022-08-06T09:15:34;100.57;;;52.10;;
13255;SDS011;37913;48.370;10.930;2022-08-06T09:18:01;103.57;;;52.08;;
13255;SDS011;37913;48.370;10.930;2022-08-06T09:20:28;101.93;;;52.60;;
13255;SDS011;37913;48.370;10.930;2022-08-06T09:22:55;102.15;;;52.00;;
13255;SDS011;37913;48.370;10.930;2022-08-06T09:28:28;100.40;;;52.22;;
13255;SDS011;37913;48.370;10.930;2022-08-06T09:30:57;107.47;;;53.15;;
13255;SDS011;37913;48.370;10.930;2022-08-06T09:33:25;104.75;;;51.53;;
13255;SDS011;37913;48.370;10.930;2022-08-06T09:35:59;106.40;;;52.85;;
13255;SDS011;37913;48.370;10.930;2022-08-06T09:38:27;102.72;;;52.03;;
13255;SDS011;37913;48.370;10.930;2022-08-06T09:41:03;90.35;;;50.15;;
13255;SDS011;37913;48.370;10.930;2022-08-06T09:43:32;112.72;;;54.83;;
13255;SDS011;37913;48.370;10.930;2022-08-06T09:45:59;103.45;;;53.47;;
13255;SDS011;37913;48.370;10.930;2022-08-06T09:48:26;107.80;;;53.65;;
13255;SDS011;37913;48.370;10.930;2022-08-06T09:50:53;109.50;;;52.85;;
13255;SDS011;37913;48.370;10.930;2022-08-06T09:53:20;105.88;;;52.55;;
13255;SDS011;37913;48.370;10.930;2022-08-06T09:55:48;113.05;;;54.83;;
13255;SDS011;37913;48.370;10.930;2022-08-06T09:58:26;108.05;;;53.88;;
13255;SDS011;37913;48.370;10.930;2022-08-06T10:01:10;111.78;;;55.05;;
13255;SDS011;37913;48.370;10.930;2022-08-06T10:03:38;111.15;;;54.45;;
13255;SDS011;37913;48.370;10.930;2022-08-06T10:06:06;108.60;;;54.30;;
13255;SDS011;37913;48.370;10.930;2022-08-06T10:08:35;109.72;;;54.00;;
13255;SDS011;37913;48.370;10.930;2022-08-06T10:11:03;106.93;;;53.03;;
13255;SDS011;37913;48.370;10.930;2022-08-06T10:13:32;105.13;;;54.22;;
13255;SDS011;37913;48.370;10.930;2022-08-06T10:16:00;107.03;;;53.65;;
13255;SDS011;37913;48.370;10.930;2022-08-06T10:18:41;98.78;;;52.35;;
13255;SDS011;37913;48.370;10.930;2022-08-06T10:21:09;114.85;;;55.15;;
13255;SDS011;37913;48.370;10.930;2022-08-06T10:23:37;114.05;;;57.05;;
13255;SDS011;37913;48.370;10.930;2022-08-06T10:26:06;112.97;;;56.58;;
13255;SDS011;37913;48.370;10.930;2022-08-06T10:28:38;112.18;;;55.00;;
13255;SDS011;37913;48.370;10.930;2022-08-06T10:31:06;100.75;;;52.67;;
13255;SDS011;37913;48.370;10.930;2022-08-06T10:33:36;107.03;;;54.63;;
13255;SDS011;37913;48.370;10.930;2022-08-06T10:36:08;106.40;;;54.88;;
13255;SDS011;37913;48.370;10.930;2022-08-06T10:38:38;101.63;;;53.97;;
13255;SDS011;37913;48.370;10.930;2022-08-06T10:41:09;100.80;;;53.78;;
13255;SDS011;37913;48.370;10.930;2022-08-06T10:43:39;104.60;;;53.85;;
13255;SDS011;37913;48.370;10.930;2022-08-06T10:46:08;107.68;;;54.63;;
13255;SDS011;37913;48.370;10.930;2022-08-06T10:48:39;113.90;;;56.97;;
13255;SDS011;37913;48.370;10.930;2022-08-06T10:51:07;109.47;;;55.05;;
13255;SDS011;37913;48.370;10.930;2022-08-06T10:53:36;107.57;;;55.17;;
13255;SDS011;37913;48.370;10.930;2022-08-06T10:56:05;105.70;;;54.85;;
13255;SDS011;37913;48.370;10.930;2022-08-06T10:58:34;99.68;;;54.40;;
13255;SDS011;37913;48.370;10.930;2022-08-06T11:01:04;101.10;;;56.30;;
13255;SDS011;37913;48.370;10.930;2022-08-06T11:06:40;119.78;;;60.20;;
13255;SDS011;37913;48.370;10.930;2022-08-06T11:09:27;121.10;;;62.60;;
13255;SDS011;37913;48.370;10.930;2022-08-06T11:12:14;121.47;;;62.92;;
13255;SDS011;37913;48.370;10.930;2022-08-06T11:14:51;116.95;;;61.75;;
13255;SDS011;37913;48.370;10.930;2022-08-06T11:17:20;107.68;;;59.30;;
13255;SDS011;37913;48.370;10.930;2022-08-06T11:19:48;109.45;;;61.20;;
13255;SDS011;37913;48.370;10.930;2022-08-06T11:22:37;102.97;;;60.33;;
13255;SDS011;37913;48.370;10.930;2022-08-06T11:25:06;100.88;;;60.17;;
13255;SDS011;37913;48.370;10.930;2022-08-06T11:27:47;104.93;;;61.40;;
13255;SDS011;37913;48.370;10.930;2022-08-06T11:30:15;108.72;;;63.17;;
13255;SDS011;37913;48.370;10.930;2022-08-06T11:32:45;106.05;;;62.10;;
13255;SDS011;37913;48.370;10.930;2022-08-06T11:38:07;109.32;;;65.20;;
13255;SDS011;37913;48.370;10.930;2022-08-06T11:40:53;110.93;;;66.10;;
13255;SDS011;37913;48.370;10.930;2022-08-06T11:46:17;105.05;;;66.72;;
13255;SDS011;37913;48.370;10.930;2022-08-06T11:51:41;108.65;;;66.88;;
13255;SDS011;37913;48.370;10.930;2022-08-06T11:54:10;109.78;;;66.20;;
13255;SDS011;37913;48.370;10.930;2022-08-06T11:59:44;106.03;;;62.67;;
13255;SDS011;37913;48.370;10.930;2022-08-06T12:02:13;104.93;;;62.28;;
13255;SDS011;37913;48.370;10.930;2022-08-06T12:04:44;104.32;;;62.42;;
13255;SDS011;37913;48.370;10.930;2022-08-06T12:07:19;104.95;;;63.38;;
13255;SDS011;37913;48.370;10.930;2022-08-06T12:09:57;88.63;;;60.53;;
13255;SDS011;37913;48.370;10.930;2022-08-06T12:12:33;119.00;;;68.55;;
13255;SDS011;37913;48.370;10.930;2022-08-06T12:15:02;107.70;;;66.68;;
13255;SDS011;37913;48.370;10.930;2022-08-06T12:17:57;107.55;;;67.55;;
13255;SDS011;37913;48.370;10.930;2022-08-06T12:20:30;99.90;;;66.55;;
13255;SDS011;37913;48.370;10.930;2022-08-06T12:22:58;111.50;;;69.82;;
13255;SDS011;37913;48.370;10.930;2022-08-06T12:25:29;106.10;;;70.10;;
13255;SDS011;37913;48.370;10.930;2022-08-06T12:27:57;107.47;;;71.35;;
13255;SDS011;37913;48.370;10.930;2022-08-06T12:30:24;105.05;;;73.82;;
13255;SDS011;37913;48.370;10.930;2022-08-06T12:32:58;112.72;;;99.78;;
13255;SDS011;37913;48.370;10.930;2022-08-06T12:35:26;105.00;;;79.70;;
13255;SDS011;37913;48.370;10.930;2022-08-06T12:37:55;92.35;;;78.03;;
13255;SDS011;37913;48.370;10.930;2022-08-06T12:40:21;109.18;;;80.20;;
13255;SDS011;37913;48.370;10.930;2022-08-06T12:43:01;95.75;;;77.28;;
13255;SDS011;37913;48.370;10.930;2022-08-06T12:45:34;111.13;;;80.43;;
13255;SDS011;37913;48.370;10.930;2022-08-06T12:48:03;109.93;;;78.43;;
13255;SDS011;37913;48.370;10.930;2022-08-06T12:50:31;111.03;;;78.78;;
13255;SDS011;37913;48.370;10.930;2022-08-06T12:53:03;122.88;;;80.50;;
13255;SDS011;37913;48.370;10.930;2022-08-06T12:55:31;111.18;;;74.78;;
13255;SDS011;37913;48.370;10.930;2022-08-06T12:58:00;104.80;;;70.72;;
13255;SDS011;37913;48.370;10.930;2022-08-06T13:00:28;102.03;;;69.00;;
13255;SDS011;37913;48.370;10.930;2022-08-06T13:02:56;101.55;;;69.93;;
13255;SDS011;37913;48.370;10.930;2022-08-06T13:05:24;121.22;;;74.65;;
13255;SDS011;37913;48.370;10.930;2022-08-06T13:07:53;97.80;;;69.70;;
13255;SDS011;37913;48.370;10.930;2022-08-06T13:10:22;114.70;;;76.80;;
13255;SDS011;37913;48.370;10.930;2022-08-06T13:12:53;103.78;;;71.70;;
13255;SDS011;37913;48.370;10.930;2022-08-06T13:15:21;111.22;;;74.40;;
13255;SDS011;37913;48.370;10.930;2022-08-06T13:18:04;101.88;;;71.55;;
13255;SDS011;37913;48.370;10.930;2022-08-06T13:20:36;103.57;;;71.35;;
13255;SDS011;37913;48.370;10.930;2022-08-06T13:23:04;101.32;;;70.55;;
13255;SDS011;37913;48.370;10.930;2022-08-06T13:25:41;92.57;;;68.35;;
13255;SDS011;37913;48.370;10.930;2022-08-06T13:28:09;108.22;;;72.13;;
13255;SDS011;37913;48.370;10.930;2022-08-06T13:30:36;101.63;;;68.40;;
13255;SDS011;37913;48.370;10.930;2022-08-06T13:35:49;99.20;;;65.00;;
13255;SDS011;37913;48.370;10.930;2022-08-06T13:38:27;104.35;;;63.92;;
13255;SDS011;37913;48.370;10.930;2022-08-06T13:40:56;100.72;;;62.28;;
13255;SDS011;37913;48.370;10.930;2022-08-06T13:43:33;93.15;;;60.50;;
13255;SDS011;37913;48.370;10.930;2022-08-06T13:46:04;104.20;;;62.42;;
13255;SDS011;37913;48.370;10.930;2022-08-06T13:48:31;90.88;;;57.80;;
13255;SDS011;37913;48.370;10.930;2022-08-06T13:50:58;101.88;;;61.22;;
13255;SDS011;37913;48.370;10.930;2022-08-06T13:53:25;99.53;;;60.63;;
13255;SDS011;37913;48.370;10.930;2022-08-06T13:55:52;95.38;;;60.00;;
13255;SDS011;37913;48.370;10.930;2022-08-06T13:58:20;108.28;;;63.05;;
13255;SDS011;37913;48.370;10.930;2022-08-06T14:00:47;99.40;;;60.70;;
13255;SDS011;37913;48.370;10.930;2022-08-06T14:03:14;102.00;;;61.00;;
13255;SDS011;37913;48.370;10.930;2022-08-06T14:05:41;96.85;;;59.00;;
13255;SDS011;37913;48.370;10.930;2022-08-06T14:08:08;99.53;;;58.88;;
13255;SDS011;37913;48.370;10.930;2022-08-06T14:10:35;95.15;;;57.58;;
13255;SDS011;37913;48.370;10.930;2022-08-06T14:13:02;101.57;;;57.80;;
13255;SDS011;37913;48.370;10.930;2022-08-06T14:15:46;101.20;;;57.50;;
13255;SDS011;37913;48.370;10.930;2022-08-06T14:18:14;94.78;;;56.85;;
13255;SDS011;37913;48.370;10.930;2022-08-06T14:20:42;95.63;;;56.35;;
13255;SDS011;37913;48.370;10.930;2022-08-06T14:23:09;108.03;;;59.60;;
13255;SDS011;37913;48.370;10.930;2022-08-06T14:25:36;99.93;;;56.58;;
13255;SDS011;37913;48.370;10.930;2022-08-06T14:28:03;97.40;;;55.03;;
13255;SDS011;37913;48.370;10.930;2022-08-06T14:30:31;98.75;;;55.00;;
13255;SDS011;37913;48.370;10.930;2022-08-06T14:32:59;93.70;;;53.85;;
13255;SDS011;37913;48.370;10.930;2022-08-06T14:35:27;106.70;;;55.72;;
13255;SDS011;37913;48.370;10.930;2022-08-06T14:37:54;96.68;;;54.03;;